Timeline UpdatesTrip UpdatesNews PostsPvt Posts♥♥Travel TipsAdmin PostsConv PostsFollowed PostsChat RequestsBlog PostsPNR Posts

Disclaimer
Search
 
 
Sun Nov 23, 2014 16:37:39 ISTHomeTrainsΣChainsAtlasPNRForumGalleryNewsFAQTripsMembersLoginFeedback
PNR Super Search

Ticket PNR Status Inquiry - PNR: 640-xxxxxxx (PRS)

OLD STATUS

Status Last Updated on: Apr 25 2012 (10:17AM) IST

Date of Journey: Wed Apr 25, 2012   Class: AC 3-tier - 3A   (Total Seats available for this Class/Quota: Avbl >30)
Passenger 1: B2,18 (Booking Status: W/L 21,DF)
Chart NOT Prepared

Guwahati-Trivandrum Central Express/12516

Travel Time: 37h 50m    21 halts    Distance: 2227 km    Avg Speed: 58 km/hr
Type: SuperFast
Zone: NFR/Northeast Frontier
Departs @ 14:25 (Avg 40m late)
Platform# 3
   W   
New Jalpaiguri Junction/NJP 
Arrives @ 04:15 +2 nights (Avg 1h 12m late)
Platform# 6
     F 
Chennai Central/MAS 

21 halts. 407 intermediate Stations between New Jalpaiguri Junction and Chennai Central

Show ALL intermediate Stations  Show Old Time-Table

#TrkCodeStation NameX/OArrivesAvgDepartsAvgHaltPFDay#KmSpeedElevZoneAddress
1|==|GHYGuwahati (7)  -06:30+061-407.43560mNFRGuwahati, Assam
2|=-|KYQKamakhya Junction (4)X  06:43 06:42+206:44+21 2m--1-400.46855mNFRDist - KAMRUP, Assam
3|--|RNYRangiya Junction (5)X  07:20+2707:25+335m--1-359.87658mNFRRangia, Assam
4|--|BPRDBarpeta Road (2)  08:17 08:16+4708:18+511 2m--1-294.93449mNFRHowli, Assam
5|-=|NBQNew Bongaigaon Junction (4)  09:35+1809:40+205m--1-250.86458mNFR783381., Assam
6|==|KOJKokrajhar (3)  10:07 10:06+3410:08+341 2m--1-223.08646mNFR03661-270618, Assam
7!==!NOQNew Alipurduar (2)X  11:03+4311:05+432m--1-144.14548mNFRDist - Alipurduar - 736121, West Bengal
8!==!NCBNew Cooch Behar Junction (5)X  11:30+4311:32+442m21-125.57847mNFRDist : Cooch Behar-736101, West Bengal
9|--|DQGDhupguri (2)  12:18+5812:20+1:002m--1-65.33675mNFRDist - Jalpaiguri, West Bengal
10|==%NJPNew Jalpaiguri Junction (8)»X  14:10+3314:25+4015m310.076114mNFRCity-Siliguri . Dist-Jalpaiguri, West Bengal
11%==%KNEKishanGanj (3)  15:34+5615:36+572m--187.35152mNFRKishanganj, Bihar
12%==%MLDTMalda Town (5)  18:30+3018:45+2515m--1235.56630mERDist - Malda, West Bengal
13%==%NFKNew Farakka Junction (3)  19:17+2119:19+212m11270.64932mERDist - Murshidabad, West Bengal
14%==%RPHRampurhat (3)  21:08+3221:10+352m11359.37841mERDIST - Birbhum, West Bengal
15%==%BHPBolpur Shantiniketan (3)X  21:57+4822:02+475m21420.05459mERDist - Birbhum, West Bengal
16/==/HWHKolkata Howrah Junction (23)00:45+2201:05+2320m102566.26910mERHowrah 711101, West Bengal
17/==/KGPKharagpur Junction (10)  02:45+4003:00+4015m32681.28242mSERDist: West Medinipur, West Bengal
18/==/BLSBalasore (4)X  04:25+4004:27+402m22797.36719mSERBalasore, Odisha
19/==/BHCBhadrak (4)X  05:23+5705:25+582m--2859.88423mECoRBhadrak, Odisha
20/==/JJKRJajpur Keonjhar Road (4)  05:57 05:56+1:0305:58+1:031 2m--2903.47636mECoRJajpur, Odisha
21/==%CTCCuttack Junction (5)  06:55+1:0507:00+1:265m--2975.44228mECoRCuttack, Odisha
22/==/BBSBhubaneswar (4)X  07:40+1:3807:45+1:385m421003.32540mECoRBhubaneshwar, Odisha
23/==/KURKhurda Road Junction (7)X  08:30+1:2108:45+1:2115m--21022.27925mECoRKhordha, Odisha
24/==/BALUBalugaon (3)  09:40 09:39+1:2209:41+1:221 2m--21093.38511mECoR752030, Odisha
25/==/BAMBrahmapur (3)  10:35+1:2510:40+1:255m--21169.35627mECoRBerhampur, Odisha
26/==/PSAPalasa (3)  12:00+1:1512:02+1:152m1821243.77531mECoRKasibugga, Andhra Pradesh
27/==/CHESrikakulam Road (4)  13:00+1:2013:02+1:202m--21316.77234mECoRsrikakulam road ph .no. 08942-287222, Andhra Pradesh
28/==/VZMVizianagaram Junction (5)X  14:00+1:1814:05+1:195m--21386.24363mECoRVizianagaram, Andhra Pradesh
29/==/VSKPVisakhapatnam Junction (8)X15:30+5815:50+1:0120m321447.46611mECoRVishakhapatnam 530001, Andhra Pradesh
30/==/RJYRajahmundry (3)  18:53+1:1118:55+1:132m121647.25423mSCRRajahmundry ph.no. 0883-2420541, Andhra Pradesh
31/==/BZAVijayawada Junction (10)X  21:40+5921:55+1:0315m621796.56824mSCRVijayawada 520001, Andhra Pradesh
32/==/MASChennai Central (12)•04:20 04:15+1:1204:45 04:40+1:1125m632227.3569mSRChennai 600003, Tamil Nadu
33/==/AJJArakkonam Junction (8)  05:58 05:53+1:2506:00 05:55+1:262m--32296.06691mSRArakkonam, Tamil Nadu
34/==/KPDKatpadi Junction (5)X  06:50+1:1906:55+1:175m132356.856213mSRVellore 632007, Tamil Nadu
35/==/JTJJolarpettai Junction (5)  08:25+5308:30+525m--32440.690405mSRJolarpettai, Tamil Nadu
36/==/SASalem Junction (6)  09:50+1:1509:55+1:145m--32560.949283mSRSalem, Tamil Nadu
37/==/EDErode Junction (4)X  11:10+1:0211:20+1:1210m232622.270175mSRErode ph.no: 0424-2256111, Tamil Nadu
38/==/TUPTiruppur (2)  12:03+1:1512:05+1:152m132672.443305mSRTiruppur. Ph:0421-2200450, Tamil Nadu
39/==/CBECoimbatore Main Junction (6)  13:20 13:15+1:1313:25 13:20+1:145m--32722.939416mSRCoimbatore 641001, Tamil Nadu
40/==/PGTPalakkad Junction (4)  14:45+2814:50+285m--32778.25884mSRPalghat Tel: 0491 2555231, Kerala
41/==/TCRThrissur (4)  16:09+3816:12+383m132854.0716mSRThrissur Tel: 0487 2423150, Kerala
42/==/AWYAluva (3)X  16:58+5917:00+592m132908.62912mSRPh: 0484-2624141, Kerala
43/==/ERNErnakulam Town (North) (2)X  17:35+5817:40+585m232925.5549mSRTel: 0484 2395198, Kerala
44%==%KTYMKottayam (3)X  18:45 18:47+5418:50+575 3m132985.45715mSRTel: 0481 2563535, Kerala
45%==%TRVLTiruvalla (2)X  19:17+1:0719:18+1:101m--33011.16027mSRPh: 0469-2601314, Kerala
46%==/CNGRChengannur (3)  19:27+1:1319:28+1:131m133020.2616mSRPh: 0479-2452340, Kerala
47/==/KYJKayamkulam Junction (5)X  19:48+1:3719:50+1:372m--33040.44511mSRAlappuzha Ph;0479-2442042, Kerala
48/==/QLNKollam Junction (6)  20:45+1:0320:50+1:045m133081.26316mSRKollam 0474-2746194, Kerala
49/==/TVPThiruvananthapuram Pettah (2)  21:49+5121:50+511m--33143.5418mSRTrivandrum Ph: 04712470181, Kerala
50/==/TVCTrivandrum Central (5)  22:30+1:03-333145.8-12mSRThiruvananthapuram 695001, Kerala
Scroll to Top
Scroll to Bottom